createdAt,value
2018-05-12T00:02:13.274Z,101271.28
2018-05-12T00:04:39.054Z,101267.84
2018-05-12T00:07:04.874Z,101267.81
2018-05-12T00:09:30.664Z,101266.69
2018-05-12T00:11:56.453Z,101261.23
2018-05-12T00:14:22.550Z,101259.38
2018-05-12T00:16:48.346Z,101258.51
2018-05-12T00:19:14.164Z,101263.98
2018-05-12T00:21:39.986Z,101269.85
2018-05-12T00:24:05.757Z,101260.42
2018-05-12T00:26:31.565Z,101258.37
2018-05-12T00:28:57.385Z,101255.06
2018-05-12T00:31:24.147Z,101259.41
2018-05-12T00:33:49.934Z,101250.00
2018-05-12T00:36:15.737Z,101247.81
2018-05-12T00:38:41.544Z,101252.77
2018-05-12T00:41:07.329Z,101249.30
2018-05-12T00:43:33.185Z,101253.63
2018-05-12T00:45:58.965Z,101243.98
2018-05-12T00:48:24.756Z,101241.54
2018-05-12T00:50:50.538Z,101240.36
2018-05-12T00:53:16.335Z,101238.86
2018-05-12T00:55:42.108Z,101235.08
2018-05-12T00:58:07.918Z,101235.26
2018-05-12T01:00:33.739Z,101234.12
2018-05-12T01:02:59.517Z,101237.23
2018-05-12T01:05:25.560Z,101235.34
2018-05-12T01:07:51.353Z,101228.88
2018-05-12T01:10:17.131Z,101224.45
2018-05-12T01:12:42.939Z,101222.91
2018-05-12T01:15:08.729Z,101220.14
2018-05-12T01:17:34.500Z,101216.61
2018-05-12T01:20:00.297Z,101216.01
2018-05-12T01:22:26.096Z,101215.66
2018-05-12T01:24:51.908Z,101211.58
2018-05-12T01:27:17.757Z,101213.73
2018-05-12T01:29:43.546Z,101213.48
2018-05-12T01:32:09.389Z,101208.58
2018-05-12T01:34:35.193Z,101208.88
2018-05-12T01:37:00.979Z,101207.20
2018-05-12T01:39:26.786Z,101205.94
2018-05-12T01:41:52.564Z,101211.41
2018-05-12T01:44:18.368Z,101215.42
2018-05-12T01:46:44.158Z,101202.01
2018-05-12T01:49:09.932Z,101212.28
2018-05-12T01:51:35.751Z,101206.56
2018-05-12T01:54:01.538Z,101209.00
2018-05-12T01:56:27.352Z,101214.98
2018-05-12T01:58:53.129Z,101209.16
2018-05-12T02:01:18.921Z,101215.97
2018-05-12T02:03:44.726Z,101217.30
2018-05-12T02:06:10.515Z,101222.04
2018-05-12T02:08:36.317Z,101217.66
2018-05-12T02:11:02.109Z,101215.61
2018-05-12T02:13:27.886Z,101220.89
2018-05-12T02:15:53.690Z,101215.57
2018-05-12T02:18:19.497Z,101218.62
2018-05-12T02:20:45.272Z,101217.33
2018-05-12T02:23:11.062Z,101214.78
2018-05-12T02:25:36.870Z,101217.09
2018-05-12T02:28:02.654Z,101218.35
2018-05-12T02:30:28.564Z,101219.53
2018-05-12T02:32:54.268Z,101223.17
2018-05-12T02:35:20.086Z,101221.08
2018-05-12T02:37:45.897Z,101221.52
2018-05-12T02:40:11.682Z,101220.91
2018-05-12T02:42:37.482Z,101219.19
2018-05-12T02:45:03.317Z,101219.38
2018-05-12T02:47:29.096Z,101215.63
2018-05-12T02:49:54.881Z,101216.92
2018-05-12T02:52:20.677Z,101219.80
2018-05-12T02:54:46.462Z,101224.84
2018-05-12T02:57:12.241Z,101220.62
2018-05-12T02:59:38.026Z,101218.73
2018-05-12T03:02:03.819Z,101218.30
2018-05-12T03:04:29.617Z,101221.84
2018-05-12T03:06:55.392Z,101216.45
2018-05-12T03:09:21.205Z,101219.13
2018-05-12T03:11:46.999Z,101218.09
2018-05-12T03:14:12.788Z,101217.95
2018-05-12T03:16:38.585Z,101216.23
2018-05-12T03:19:04.374Z,101220.17
2018-05-12T03:21:30.180Z,101219.98
2018-05-12T03:23:55.970Z,101216.87
2018-05-12T03:26:21.749Z,101218.67
2018-05-12T03:28:47.551Z,101217.73
2018-05-12T03:31:13.337Z,101218.39
2018-05-12T03:33:39.121Z,101210.56
2018-05-12T03:36:04.937Z,101217.42
2018-05-12T03:38:30.737Z,101208.81
2018-05-12T03:40:56.520Z,101208.41
2018-05-12T03:43:22.304Z,101207.09
2018-05-12T03:45:48.101Z,101210.52
2018-05-12T03:48:13.909Z,101209.90
2018-05-12T03:50:39.693Z,101213.09
2018-05-12T03:53:05.482Z,101214.48
2018-05-12T03:55:31.288Z,101212.07
2018-05-12T03:57:57.058Z,101219.78
2018-05-12T04:00:22.864Z,101216.69
2018-05-12T04:02:48.974Z,101222.70
2018-05-12T04:05:27.113Z,101214.34
2018-05-12T04:08:05.280Z,101223.28
2018-05-12T04:10:43.308Z,101217.05
2018-05-12T04:13:09.120Z,101220.25
2018-05-12T04:15:35.750Z,101225.16
2018-05-12T04:18:01.542Z,101220.58
2018-05-12T04:20:27.329Z,101216.22
2018-05-12T04:22:53.116Z,101216.84
2018-05-12T04:25:18.932Z,101219.07
2018-05-12T04:27:44.716Z,101218.24
2018-05-12T04:30:10.511Z,101218.20
2018-05-12T04:32:36.286Z,101220.02
2018-05-12T04:35:02.104Z,101220.45
2018-05-12T04:37:28.027Z,101222.90
2018-05-12T04:39:53.803Z,101220.12
2018-05-12T04:42:19.925Z,101225.81
2018-05-12T04:44:45.727Z,101230.94
2018-05-12T04:47:11.527Z,101226.79
2018-05-12T04:49:37.328Z,101235.01
2018-05-12T04:52:03.159Z,101236.49
2018-05-12T04:54:28.943Z,101233.79
2018-05-12T04:56:54.729Z,101239.80
2018-05-12T04:59:20.517Z,101242.41
2018-05-12T05:01:46.347Z,101235.45
2018-05-12T05:04:12.155Z,101241.36
2018-05-12T05:06:37.938Z,101240.20
2018-05-12T05:09:03.787Z,101240.85
2018-05-12T05:11:29.588Z,101238.14
2018-05-12T05:13:55.364Z,101236.38
2018-05-12T05:16:21.148Z,101240.48
2018-05-12T05:18:46.940Z,101248.20
2018-05-12T05:21:12.795Z,101232.70
2018-05-12T05:23:38.509Z,101242.75
2018-05-12T05:26:04.317Z,101246.36
2018-05-12T05:28:30.096Z,101253.60
2018-05-12T05:30:55.890Z,101253.42
2018-05-12T05:33:21.706Z,101252.87
2018-05-12T05:35:47.486Z,101254.31
2018-05-12T05:38:13.286Z,101251.89
2018-05-12T05:40:39.081Z,101249.50
2018-05-12T05:43:04.868Z,101243.36
2018-05-12T05:45:30.660Z,101249.06
2018-05-12T05:47:56.436Z,101243.17
2018-05-12T05:50:22.230Z,101252.11
2018-05-12T05:52:48.025Z,101249.22
2018-05-12T05:55:13.804Z,101249.83
2018-05-12T05:57:39.604Z,101255.78
2018-05-12T06:00:05.429Z,101257.25
2018-05-12T06:02:31.230Z,101260.59
2018-05-12T06:04:57.049Z,101259.56
2018-05-12T06:07:22.842Z,101256.95
2018-05-12T06:09:48.617Z,101256.81
2018-05-12T06:12:14.429Z,101259.97
2018-05-12T06:14:40.209Z,101262.50
2018-05-12T06:17:06.001Z,101264.67
2018-05-12T06:19:31.800Z,101268.89
2018-05-12T06:21:57.594Z,101262.81
2018-05-12T06:24:23.378Z,101269.08
2018-05-12T06:26:49.172Z,101270.20
2018-05-12T06:29:15.327Z,101264.86
2018-05-12T06:31:41.105Z,101266.12
2018-05-12T06:34:06.898Z,101264.63
2018-05-12T06:36:32.699Z,101269.72
2018-05-12T06:38:58.494Z,101269.34
2018-05-12T06:41:24.288Z,101264.53
2018-05-12T06:43:50.087Z,101270.68
2018-05-12T06:46:15.932Z,101269.70
2018-05-12T06:48:41.684Z,101268.55
2018-05-12T06:51:07.478Z,101272.16
2018-05-12T06:53:33.263Z,101276.25
2018-05-12T06:55:59.334Z,101277.09
2018-05-12T06:58:25.113Z,101277.25
2018-05-12T07:00:50.930Z,101278.86
2018-05-12T07:03:16.884Z,101281.87
2018-05-12T07:05:42.675Z,101279.14
2018-05-12T07:08:08.461Z,101283.28
2018-05-12T07:10:34.250Z,101278.59
2018-05-12T07:13:00.056Z,101283.47
2018-05-12T07:15:25.874Z,101287.15
2018-05-12T07:17:51.671Z,101288.47
2018-05-12T07:20:17.453Z,101293.42
2018-05-12T07:22:43.256Z,101292.80
2018-05-12T07:25:09.041Z,101289.25
2018-05-12T07:27:34.830Z,101284.03
2018-05-12T07:30:00.650Z,101279.02
2018-05-12T07:32:26.699Z,101278.42
2018-05-12T07:34:52.493Z,101281.20
2018-05-12T07:37:18.287Z,101285.67
2018-05-12T07:39:44.365Z,101294.66
2018-05-12T07:42:10.178Z,101294.02
2018-05-12T07:44:35.953Z,101289.77
2018-05-12T07:47:01.823Z,101284.91
2018-05-12T07:49:27.605Z,101278.22
2018-05-12T07:51:53.409Z,101275.66
2018-05-12T07:54:19.215Z,101280.87
2018-05-12T07:56:45.498Z,101275.55
2018-05-12T07:59:11.290Z,101272.69
2018-05-12T08:01:37.069Z,101271.78
2018-05-12T08:04:02.901Z,101268.97
2018-05-12T08:06:28.699Z,101267.30
2018-05-12T08:08:54.506Z,101262.14
2018-05-12T08:11:20.297Z,101264.16
2018-05-12T08:13:46.102Z,101262.38
2018-05-12T08:16:11.912Z,101260.64
2018-05-12T08:18:37.699Z,101260.05
2018-05-12T08:21:03.519Z,101256.69
2018-05-12T08:23:29.311Z,101258.08
2018-05-12T08:25:55.113Z,101258.72
2018-05-12T08:28:21.008Z,101259.96
2018-05-12T08:30:46.790Z,101262.95
2018-05-12T08:33:12.604Z,101259.19
2018-05-12T08:35:38.532Z,101264.23
2018-05-12T08:38:04.323Z,101239.38
2018-05-12T08:40:30.238Z,101261.45
2018-05-12T08:42:55.929Z,101259.72
2018-05-12T08:45:21.709Z,101257.63
2018-05-12T08:47:47.484Z,101255.84
2018-05-12T08:50:13.273Z,101256.92
2018-05-12T08:52:39.078Z,101252.83
2018-05-12T08:55:04.862Z,101253.69
2018-05-12T08:57:31.516Z,101249.05
2018-05-12T08:59:57.374Z,101252.84
2018-05-12T09:02:23.166Z,101253.32
2018-05-12T09:04:48.982Z,101255.69
2018-05-12T09:07:14.806Z,101258.01
2018-05-12T09:09:40.565Z,101259.30
2018-05-12T09:12:06.379Z,101254.77
2018-05-12T09:14:32.170Z,101251.08
2018-05-12T09:16:57.963Z,101252.95
2018-05-12T09:19:23.841Z,101245.48
2018-05-12T09:21:49.632Z,101246.63
2018-05-12T09:24:15.438Z,101249.54
2018-05-12T09:26:41.266Z,101242.91
2018-05-12T09:29:07.067Z,101245.45
2018-05-12T09:31:32.906Z,101236.55
2018-05-12T09:33:59.127Z,101242.91
2018-05-12T09:36:24.878Z,101246.98
2018-05-12T09:38:50.665Z,101241.74
2018-05-12T09:41:16.501Z,101243.27
2018-05-12T09:43:42.289Z,101238.97
2018-05-12T09:46:08.187Z,101244.64
2018-05-12T09:48:33.989Z,101246.03
2018-05-12T09:50:59.795Z,101243.69
2018-05-12T09:53:25.577Z,101238.70
2018-05-12T09:55:51.380Z,101234.47
2018-05-12T09:58:17.177Z,101232.22
2018-05-12T10:00:42.974Z,101226.67
2018-05-12T10:03:08.774Z,101229.70
2018-05-12T10:05:34.693Z,101233.59
2018-05-12T10:08:00.490Z,101229.15
2018-05-12T10:10:26.274Z,101227.16
2018-05-12T10:12:52.125Z,101226.33
2018-05-12T10:15:17.898Z,101226.63
2018-05-12T10:17:43.685Z,101230.36
2018-05-12T10:20:09.746Z,101227.08
2018-05-12T10:22:35.554Z,101226.95
2018-05-12T10:25:01.341Z,101223.30
2018-05-12T10:27:27.223Z,101226.25
2018-05-12T10:29:53.001Z,101210.94
2018-05-12T10:32:18.773Z,101225.06
2018-05-12T10:34:44.577Z,101222.52
2018-05-12T10:37:10.362Z,101217.33
2018-05-12T10:39:36.177Z,101216.78
2018-05-12T10:42:01.980Z,101212.78
2018-05-12T10:44:27.758Z,101215.91
2018-05-12T10:46:53.920Z,101208.24
2018-05-12T10:49:19.715Z,101211.27
2018-05-12T10:51:45.511Z,101206.64
2018-05-12T10:54:11.328Z,101201.78
2018-05-12T10:56:37.118Z,101190.02
2018-05-12T10:59:02.915Z,101202.72
2018-05-12T11:01:28.723Z,101201.13
2018-05-12T11:03:54.502Z,101200.93
2018-05-12T11:06:20.285Z,101192.95
2018-05-12T11:08:46.081Z,101194.31
2018-05-12T11:11:11.906Z,101190.95
2018-05-12T11:13:37.706Z,101173.16
2018-05-12T11:16:03.619Z,101189.70
2018-05-12T11:18:29.319Z,101191.14
2018-05-12T11:20:55.145Z,101184.92
2018-05-12T11:23:20.928Z,101181.40
2018-05-12T11:25:46.713Z,101183.14
2018-05-12T11:28:12.526Z,101190.64
2018-05-12T11:30:38.331Z,101184.36
2018-05-12T11:33:04.134Z,101180.27
2018-05-12T11:35:30.182Z,101179.39
2018-05-12T11:37:55.969Z,101180.92
2018-05-12T11:40:21.770Z,101179.95
2018-05-12T11:42:47.563Z,101174.34
2018-05-12T11:45:13.348Z,101176.17
2018-05-12T11:47:39.142Z,101175.73
2018-05-12T11:50:04.948Z,101167.75
2018-05-12T11:52:30.745Z,101176.16
2018-05-12T11:54:56.533Z,101168.41
2018-05-12T11:57:22.308Z,101164.07
2018-05-12T11:59:48.104Z,101159.72
2018-05-12T12:02:13.905Z,101163.73
2018-05-12T12:04:39.701Z,101157.84
2018-05-12T12:07:05.488Z,101155.31
2018-05-12T12:09:31.365Z,101157.82
2018-05-12T12:11:57.151Z,101154.09
2018-05-12T12:14:22.942Z,101155.72
2018-05-12T12:16:48.756Z,101154.81
2018-05-12T12:19:14.548Z,101154.78
2018-05-12T12:21:40.347Z,101145.95
2018-05-12T12:24:06.151Z,101146.74
2018-05-12T12:26:31.944Z,101142.33
2018-05-12T12:28:57.740Z,101144.19
2018-05-12T12:31:23.538Z,101148.27
2018-05-12T12:33:49.339Z,101138.96
2018-05-12T12:36:15.305Z,101145.23
2018-05-12T12:38:41.126Z,101136.84
2018-05-12T12:41:06.912Z,101134.03
2018-05-12T12:43:32.709Z,101136.32
2018-05-12T12:45:58.494Z,101132.50
2018-05-12T12:48:24.270Z,101130.74
2018-05-12T12:50:50.078Z,101127.89
2018-05-12T12:53:15.862Z,101131.28
2018-05-12T12:55:41.650Z,101126.95
2018-05-12T12:58:07.433Z,101115.50
2018-05-12T13:00:33.244Z,101124.94
2018-05-12T13:02:59.024Z,101117.11
2018-05-12T13:05:25.157Z,101120.03
2018-05-12T13:07:50.947Z,101104.89
2018-05-12T13:10:16.730Z,101110.53
2018-05-12T13:12:42.539Z,101111.53
2018-05-12T13:15:08.321Z,101115.85
2018-05-12T13:17:34.161Z,101104.98
2018-05-12T13:19:59.963Z,101103.52
2018-05-12T13:22:25.780Z,101102.19
2018-05-12T13:24:51.582Z,101098.84
2018-05-12T13:27:17.556Z,101098.22
2018-05-12T13:29:43.356Z,101090.63
2018-05-12T13:32:09.154Z,101092.27
2018-05-12T13:34:34.965Z,101088.61
2018-05-12T13:37:00.741Z,101084.92
2018-05-12T13:39:26.525Z,101073.29
2018-05-12T13:41:52.365Z,101082.08
2018-05-12T13:44:18.160Z,101085.19
2018-05-12T13:46:43.950Z,101078.05
2018-05-12T13:49:09.730Z,101078.19
2018-05-12T13:51:35.523Z,101072.13
2018-05-12T13:54:01.370Z,101071.58
2018-05-12T13:56:27.153Z,101069.89
2018-05-12T13:58:52.966Z,101066.66
2018-05-12T14:01:18.745Z,101066.47
2018-05-12T14:03:44.537Z,101066.19
2018-05-12T14:06:10.376Z,101063.84
2018-05-12T14:08:36.156Z,101072.64
2018-05-12T14:11:01.978Z,101061.89
2018-05-12T14:13:27.763Z,101060.34
2018-05-12T14:15:53.568Z,101061.50
2018-05-12T14:18:19.357Z,101058.21
2018-05-12T14:20:45.134Z,101062.38
2018-05-12T14:23:11.242Z,101056.53
2018-05-12T14:25:37.022Z,101047.77
2018-05-12T14:28:02.835Z,101052.15
2018-05-12T14:30:28.654Z,101043.84
2018-05-12T14:32:54.435Z,101046.48
2018-05-12T14:35:20.227Z,101044.14
2018-05-12T14:37:46.039Z,101048.96
2018-05-12T14:40:11.823Z,101042.03
2018-05-12T14:42:37.664Z,101035.69
2018-05-12T14:45:03.456Z,101040.26
2018-05-12T14:47:29.269Z,101035.34
2018-05-12T14:49:55.061Z,101034.62
2018-05-12T14:52:20.855Z,101028.50
2018-05-12T14:54:46.642Z,101032.69
2018-05-12T14:57:12.430Z,101024.02
2018-05-12T14:59:38.227Z,101015.22
2018-05-12T15:02:04.035Z,101024.28
2018-05-12T15:04:29.832Z,101023.61
2018-05-12T15:06:55.601Z,101018.95
2018-05-12T15:09:21.392Z,101027.59
2018-05-12T15:11:47.194Z,101023.44
2018-05-12T15:14:12.974Z,101025.25
2018-05-12T15:16:38.744Z,101030.30
2018-05-12T15:19:04.539Z,101026.96
2018-05-12T15:21:30.337Z,101022.95
2018-05-12T15:23:56.124Z,101021.45
2018-05-12T15:26:21.910Z,101024.56
2018-05-12T15:28:47.690Z,101027.95
2018-05-12T15:31:13.473Z,101020.97
2018-05-12T15:33:39.559Z,101019.14
2018-05-12T15:36:05.345Z,101012.24
2018-05-12T15:38:31.116Z,101013.10
2018-05-12T15:40:56.932Z,101010.73
2018-05-12T15:43:22.705Z,101009.62
2018-05-12T15:45:48.489Z,101010.61
2018-05-12T15:48:14.579Z,101006.44
2018-05-12T15:50:40.366Z,100999.95
2018-05-12T15:53:06.143Z,101004.16
2018-05-12T15:55:31.941Z,100996.41
2018-05-12T15:57:57.720Z,100991.24
2018-05-12T16:00:23.502Z,100987.22
2018-05-12T16:02:49.308Z,100997.77
2018-05-12T16:05:15.089Z,100995.57
2018-05-12T16:07:40.865Z,100985.30
2018-05-12T16:10:06.650Z,100986.51
2018-05-12T16:12:32.429Z,100984.95
2018-05-12T16:14:58.227Z,100985.94
2018-05-12T16:17:24.012Z,100985.97
2018-05-12T16:19:49.800Z,100989.05
2018-05-12T16:22:15.697Z,100983.60
2018-05-12T16:24:41.513Z,100987.67
2018-05-12T16:27:07.296Z,100991.26
2018-05-12T16:29:33.086Z,100991.00
2018-05-12T16:31:58.868Z,100989.82
2018-05-12T16:34:24.658Z,100992.26
2018-05-12T16:36:50.470Z,100974.05
2018-05-12T16:39:16.268Z,100987.77
2018-05-12T16:41:42.062Z,100990.45
2018-05-12T16:44:07.856Z,100979.10
2018-05-12T16:46:33.652Z,100983.41
2018-05-12T16:48:59.433Z,100988.08
2018-05-12T16:51:25.232Z,100981.98
2018-05-12T16:53:51.026Z,100983.49
2018-05-12T16:56:16.810Z,100989.86
2018-05-12T16:58:42.633Z,100980.84
2018-05-12T17:01:08.406Z,100981.86
2018-05-12T17:03:34.183Z,100979.78
2018-05-12T17:05:59.981Z,100978.50
2018-05-12T17:08:25.777Z,100980.78
2018-05-12T17:10:51.571Z,100983.01
2018-05-12T17:13:17.383Z,100986.41
2018-05-12T17:15:43.166Z,100976.12
2018-05-12T17:18:08.950Z,100976.91
2018-05-12T17:20:34.745Z,100979.31
2018-05-12T17:23:00.533Z,100971.92
2018-05-12T17:25:26.331Z,100979.45
2018-05-12T17:27:52.128Z,100971.41
2018-05-12T17:30:17.920Z,100981.73
2018-05-12T17:32:43.698Z,100974.80
2018-05-12T17:35:09.505Z,100979.49
2018-05-12T17:37:35.288Z,100971.38
2018-05-12T17:40:01.065Z,100972.86
2018-05-12T17:42:26.853Z,100968.24
2018-05-12T17:44:52.624Z,100962.87
2018-05-12T17:47:18.426Z,100964.02
2018-05-12T17:49:44.206Z,100962.71
2018-05-12T17:52:09.997Z,100957.66
2018-05-12T17:54:35.813Z,100957.34
2018-05-12T17:57:01.607Z,100957.83
2018-05-12T17:59:27.407Z,100958.09
2018-05-12T18:01:53.240Z,100960.86
2018-05-12T18:04:19.017Z,100959.37
2018-05-12T18:06:44.817Z,100955.97
2018-05-12T18:09:10.614Z,100959.98
2018-05-12T18:11:36.488Z,100950.00
2018-05-12T18:14:02.245Z,100956.86
2018-05-12T18:16:28.093Z,100951.99
2018-05-12T18:18:54.092Z,100951.23
2018-05-12T18:21:19.896Z,100954.81
2018-05-12T18:23:45.690Z,100953.72
2018-05-12T18:26:12.493Z,100958.77
2018-05-12T18:28:38.422Z,100954.38
2018-05-12T18:31:04.241Z,100955.23
2018-05-12T18:33:30.072Z,100958.06
2018-05-12T18:35:55.861Z,100957.47
2018-05-12T18:38:21.970Z,100964.25
2018-05-12T18:40:48.673Z,100960.58
2018-05-12T18:43:14.460Z,100953.16
2018-05-12T18:45:40.257Z,100960.14
2018-05-12T18:48:06.049Z,100963.08
2018-05-12T18:50:31.841Z,100956.34
2018-05-12T18:52:57.632Z,100964.97
2018-05-12T18:55:23.613Z,100965.21
2018-05-12T18:57:49.397Z,100962.67
2018-05-12T19:00:15.533Z,100968.48
2018-05-12T19:02:41.318Z,100961.90
2018-05-12T19:05:07.185Z,100961.20
2018-05-12T19:07:32.989Z,100963.64
2018-05-12T19:09:58.772Z,100970.61
2018-05-12T19:12:24.556Z,100970.36
2018-05-12T19:14:50.394Z,100967.44
2018-05-12T19:17:16.334Z,100970.23
2018-05-12T19:19:42.034Z,100970.82
2018-05-12T19:22:07.830Z,100973.96
2018-05-12T19:24:33.614Z,100976.91
2018-05-12T19:27:06.532Z,100975.45
2018-05-12T19:29:32.570Z,100979.94
2018-05-12T19:31:58.358Z,100981.36
2018-05-12T19:34:24.158Z,100981.41
2018-05-12T19:36:49.965Z,100980.67
2018-05-12T19:39:15.846Z,100983.04
2018-05-12T19:41:41.662Z,100980.61
2018-05-12T19:44:07.478Z,100984.93
2018-05-12T19:46:33.298Z,100974.14
2018-05-12T19:48:59.454Z,100975.84
2018-05-12T19:51:25.314Z,100972.64
2018-05-12T19:53:51.347Z,100973.94
2018-05-12T19:56:17.177Z,100971.62
2018-05-12T19:58:43.237Z,100976.44
2018-05-12T20:01:09.033Z,100979.03
2018-05-12T20:06:07.494Z,100986.98
2018-05-12T20:08:33.323Z,100981.20
2018-05-12T20:10:59.111Z,100986.53
2018-05-12T20:13:25.878Z,100987.39
2018-05-12T20:15:52.993Z,100980.84
2018-05-12T20:18:18.890Z,100980.02
2018-05-12T20:20:44.686Z,100978.30
2018-05-12T20:23:11.369Z,100977.38
2018-05-12T20:25:37.212Z,100975.57
2018-05-12T20:28:03.011Z,100972.84
2018-05-12T20:30:28.811Z,100971.46
2018-05-12T20:32:54.629Z,100966.78
2018-05-12T20:35:21.191Z,100972.70
2018-05-12T20:37:47.001Z,100965.63
2018-05-12T20:40:12.833Z,100967.35
2018-05-12T20:42:38.647Z,100960.05
2018-05-12T20:45:05.503Z,100962.08
2018-05-12T20:50:28.237Z,100970.16
2018-05-12T20:52:54.051Z,100964.30
2018-05-12T20:55:19.958Z,100971.02
2018-05-12T20:57:45.769Z,100970.64
2018-05-12T21:00:11.978Z,100974.12
2018-05-12T21:02:37.799Z,100967.94
2018-05-12T21:05:03.885Z,100967.81
2018-05-12T21:07:30.065Z,100969.47
2018-05-12T21:09:55.852Z,100970.48
2018-05-12T21:12:21.661Z,100979.23
2018-05-12T21:14:47.473Z,100970.05
2018-05-12T21:17:13.844Z,100966.82
2018-05-12T21:19:39.649Z,100975.47
2018-05-12T21:22:05.777Z,100966.58
2018-05-12T21:24:31.861Z,100965.09
2018-05-12T21:26:57.680Z,100967.89
2018-05-12T21:29:23.905Z,100969.64
2018-05-12T21:31:49.678Z,100963.61
2018-05-12T21:34:15.456Z,100966.55
2018-05-12T21:36:41.605Z,100974.14
2018-05-12T21:39:07.402Z,100967.55
2018-05-12T21:41:33.521Z,100964.56
2018-05-12T21:43:59.330Z,100962.16
2018-05-12T21:46:25.426Z,100959.17
2018-05-12T21:48:51.233Z,100956.95
2018-05-12T21:51:17.297Z,100950.77
2018-05-12T21:53:43.178Z,100937.20
2018-05-12T21:56:09.006Z,100952.09
2018-05-12T21:58:35.094Z,100961.48
2018-05-12T22:01:00.893Z,100956.28
2018-05-12T22:03:26.782Z,100958.96
2018-05-12T22:05:52.585Z,100958.87
2018-05-12T22:08:18.608Z,100969.50
2018-05-12T22:10:44.665Z,100966.48
2018-05-12T22:13:10.488Z,100958.90
2018-05-12T22:15:36.281Z,100963.98
2018-05-12T22:18:02.786Z,100963.58
2018-05-12T22:20:28.597Z,100964.27
2018-05-12T22:22:54.693Z,100957.23
2018-05-12T22:25:20.505Z,100957.42
2018-05-12T22:27:46.458Z,100947.90
2018-05-12T22:30:12.449Z,100931.11
2018-05-12T22:32:38.258Z,100949.93
2018-05-12T22:35:04.041Z,100947.86
2018-05-12T22:37:29.859Z,100946.14
2018-05-12T22:39:55.687Z,100949.53
2018-05-12T22:42:22.008Z,100947.55
2018-05-12T22:44:47.849Z,100947.73
2018-05-12T22:47:13.652Z,100950.55
2018-05-12T22:49:39.443Z,100943.08
2018-05-12T22:52:05.251Z,100941.27
2018-05-12T22:54:31.054Z,100938.48
2018-05-12T22:56:56.860Z,100935.41
2018-05-12T22:59:22.642Z,100932.59
2018-05-12T23:01:48.565Z,100926.80
2018-05-12T23:04:14.348Z,100925.53
2018-05-12T23:06:40.149Z,100922.30
2018-05-12T23:09:05.949Z,100916.41
2018-05-12T23:11:31.741Z,100921.27
2018-05-12T23:13:57.545Z,100929.88
2018-05-12T23:16:23.371Z,100920.95
2018-05-12T23:18:49.177Z,100930.85
2018-05-12T23:21:15.185Z,100925.14
2018-05-12T23:23:40.985Z,100936.59
2018-05-12T23:26:06.772Z,100933.05
2018-05-12T23:28:32.591Z,100936.59
2018-05-12T23:30:58.396Z,100938.56
2018-05-12T23:33:24.212Z,100932.59
2018-05-12T23:35:50.048Z,100934.57
2018-05-12T23:38:15.860Z,100928.04
2018-05-12T23:40:41.659Z,100930.62
2018-05-12T23:43:07.765Z,100928.91
2018-05-12T23:45:33.538Z,100919.72
2018-05-12T23:47:59.368Z,100911.02
2018-05-12T23:50:25.174Z,100901.66
2018-05-12T23:52:50.961Z,100901.08
2018-05-12T23:55:16.758Z,100894.63
2018-05-12T23:57:42.549Z,100903.55
